KSKX

Taos Regional Airport

Taos, New Mexico, USA
METAR KSKX 181356Z AUTO VRB03KT 10SM CLR 17/12 A3042 RMK AO2 SLP230 T01670117 $
Observed Flight Rules
Aug-18 @ 13:56 UTC (57 minutes ago) Visual Flight Rules
Wind Visibility Clouds
Variable at 3 knots 10 miles
  • Clear skies
Temperatures Readings
Current 17°C / 63°F
Dewpoint 12°C / 54°F
Humidity 73%
Altimeter 30.42" Hg
Pressure 1023 hPa
Elevation 2161
METAR KSKX 181356Z AUTO VRB03KT 10SM CLR 17/12 A3042 RMK AO2 SLP230 T01670117 $
Observed Flight Rules
Aug-18 @ 13:56 UTC
(57 minutes ago)
VFR
Wind Visibility
Variable at 3 knots 10 miles
Clouds
  • Clear skies
Temperature Dewpoint
17°C / 63°F 12°C / 54°F
Humidity Altimeter Pressure
73% 30.42" Hg 1023 hPa